Time;durP1;ratioP1;P1;durP2;ratioP2;P2;SDS_P1;SDS_P2;PMS_P1;PMS_P2;Temp;Humidity;BMP_temperature;BMP_pressure;BME280_temperature;BME280_humidity;BME280_pressure;Samples;Min_cycle;Max_cycle;Signal;HPM_P1;HPM_P2
2022/03/29 00:02:12;;;;;;;86.40;38.80;;;;;;;5.54;87.15;101703.75;5000283;28;20034;-64
2022/03/29 00:04:37;;;;;;;92.75;40.97;;;;;;;5.44;87.15;101693.44;4999576;28;20111;-64
2022/03/29 00:07:03;;;;;;;84.70;37.50;;;;;;;5.41;87.41;101696.16;4998725;28;20108;-64
2022/03/29 00:09:28;;;;;;;89.20;37.75;;;;;;;5.44;87.28;101693.44;4980369;28;20033;-64
2022/03/29 00:11:53;;;;;;;91.45;40.25;;;;;;;5.34;87.52;101689.31;4998668;28;20030;-64
2022/03/29 00:14:19;;;;;;;92.88;38.80;;;;;;;5.26;87.80;101686.00;4998629;28;20919;-63
2022/03/29 00:16:45;;;;;;;97.47;37.72;;;;;;;5.25;87.99;101686.91;4996803;28;20034;-64
2022/03/29 00:19:10;;;;;;;91.18;37.88;;;;;;;5.22;88.03;101683.50;4999312;28;20045;-63
2022/03/29 00:21:36;;;;;;;93.55;38.95;;;;;;;5.14;88.48;101681.06;4995493;28;20042;-64
2022/03/29 00:24:02;;;;;;;96.43;40.45;;;;;;;5.11;88.89;101679.38;4999556;28;20050;-64
2022/03/29 00:26:28;;;;;;;95.72;40.10;;;;;;;5.15;88.59;101678.38;4982085;28;20069;-63
2022/03/29 00:28:54;;;;;;;102.57;40.75;;;;;;;5.20;88.93;101679.13;4999972;28;20665;-64
2022/03/29 00:31:19;;;;;;;107.25;42.22;;;;;;;5.29;89.26;101678.00;4999745;28;20060;-63
2022/03/29 00:33:47;;;;;;;106.18;42.28;;;;;;;5.30;89.23;101674.44;4981631;28;20553;-64
2022/03/29 00:36:13;;;;;;;112.82;41.25;;;;;;;5.34;89.31;101673.44;4981408;28;20788;-64
2022/03/29 00:38:38;;;;;;;108.65;44.50;;;;;;;5.36;89.50;101666.31;4999354;28;20042;-64
2022/03/29 00:41:04;;;;;;;112.78;44.42;;;;;;;5.37;89.90;101669.84;4999473;28;20041;-64
2022/03/29 00:43:29;;;;;;;111.22;41.55;;;;;;;5.45;89.34;101665.22;4982597;28;20474;-63
2022/03/29 00:45:56;;;;;;;135.35;46.20;;;;;;;5.40;90.05;101669.75;5000575;28;20053;-64
2022/03/29 00:48:21;;;;;;;121.50;48.10;;;;;;;5.38;90.03;101655.72;4998936;28;20138;-64
2022/03/29 00:50:47;;;;;;;122.15;44.08;;;;;;;5.43;89.41;101665.25;5000732;28;20045;-64
2022/03/29 00:53:13;;;;;;;128.38;47.63;;;;;;;5.38;89.89;101658.38;5000672;28;20042;-64
2022/03/29 00:55:39;;;;;;;130.35;47.40;;;;;;;5.39;90.03;101653.03;4982701;28;20053;-64
2022/03/29 00:58:08;;;;;;;131.52;47.67;;;;;;;5.39;90.12;101655.69;5000820;28;20046;-64
2022/03/29 01:00:35;;;;;;;141.77;49.42;;;;;;;5.35;90.15;101655.81;5004673;28;20038;-64
2022/03/29 01:03:03;;;;;;;130.35;46.75;;;;;;;5.41;90.40;101648.53;5004597;28;20080;-64
2022/03/29 01:05:31;;;;;;;130.77;47.13;;;;;;;5.41;90.03;101653.84;5004232;28;20041;-64
2022/03/29 01:07:58;;;;;;;145.90;51.30;;;;;;;5.44;90.03;101648.47;5004452;28;20104;-64
2022/03/29 01:10:24;;;;;;;141.73;48.28;;;;;;;5.43;90.03;101653.81;5003944;28;20041;-64
2022/03/29 01:12:51;;;;;;;133.63;45.97;;;;;;;5.46;90.19;101645.78;5003772;28;20125;-63
2022/03/29 01:15:19;;;;;;;137.30;49.67;;;;;;;5.45;90.57;101644.91;4985413;28;20042;-64
2022/03/29 01:17:46;;;;;;;130.35;49.50;;;;;;;5.39;90.45;101642.44;5003253;28;20049;-64
2022/03/29 01:20:18;;;;;;;131.68;46.80;;;;;;;5.40;90.87;101633.59;5003080;28;20041;-63
2022/03/29 01:22:46;;;;;;;137.55;48.92;;;;;;;5.40;91.10;101643.31;5002770;28;20030;-64
2022/03/29 01:25:20;;;;;;;144.13;49.45;;;;;;;5.36;91.14;101637.22;5002644;28;20041;-64
2022/03/29 01:27:47;;;;;;;150.50;51.92;;;;;;;5.40;91.03;101635.38;5002916;28;20049;-64
2022/03/29 01:30:14;;;;;;;142.68;50.60;;;;;;;5.37;91.24;101635.47;5002707;28;20034;-64
2022/03/29 01:32:43;;;;;;;141.48;47.90;;;;;;;5.35;90.97;101632.88;5002586;28;20042;-64
2022/03/29 01:35:08;;;;;;;133.18;48.97;;;;;;;5.24;91.51;101631.44;5002480;28;20578;-64
2022/03/29 01:37:35;;;;;;;158.38;51.10;;;;;;;5.27;91.59;101626.06;5002638;28;20042;-65
2022/03/29 01:40:12;;;;;;;146.57;48.33;;;;;;;5.24;91.63;101628.81;5002061;28;20130;-64
2022/03/29 01:42:38;;;;;;;152.30;50.97;;;;;;;5.25;91.60;101625.25;5001815;28;20054;-63
2022/03/29 01:45:04;;;;;;;137.15;50.38;;;;;;;5.25;91.86;101625.25;5002122;28;20072;-63
2022/03/29 01:47:29;;;;;;;148.38;52.30;;;;;;;5.30;92.13;101623.34;5002213;28;20338;-63
2022/03/29 01:49:55;;;;;;;142.85;48.15;;;;;;;5.29;91.85;101618.97;5001275;28;20054;-63
2022/03/29 01:52:20;;;;;;;166.10;48.45;;;;;;;5.21;92.03;101621.81;5003012;28;20046;-64
2022/03/29 01:54:46;;;;;;;146.77;47.45;;;;;;;5.20;92.10;101617.44;4985039;28;20115;-64
2022/03/29 01:57:12;;;;;;;183.07;52.40;;;;;;;5.18;92.59;101606.06;5001405;28;20399;-63
2022/03/29 02:02:25;;;;;;;165.63;50.00;;;;;;;5.23;93.02;101609.44;4984411;28;20045;-63
2022/03/29 02:04:51;;;;;;;177.68;53.10;;;;;;;5.23;92.57;101604.16;5002372;28;20045;-63
2022/03/29 02:07:16;;;;;;;167.50;51.33;;;;;;;5.29;92.38;101590.75;4984715;28;20056;-64
2022/03/29 02:09:43;;;;;;;178.35;52.30;;;;;;;5.30;92.71;101592.47;5001009;28;20038;-64
2022/03/29 02:12:09;;;;;;;195.65;53.63;;;;;;;5.23;92.51;101593.56;5002890;28;20046;-64
2022/03/29 02:14:35;;;;;;;212.40;56.15;;;;;;;5.15;93.00;101593.78;5003106;28;20038;-64
2022/03/29 02:17:00;;;;;;;207.40;51.97;;;;;;;5.09;92.82;101593.09;5002984;28;20034;-63
2022/03/29 02:19:26;;;;;;;236.73;59.70;;;;;;;5.16;93.51;101589.34;5002923;28;20042;-64
2022/03/29 02:21:52;;;;;;;234.40;55.65;;;;;;;5.18;93.55;101592.84;4981692;28;20563;-64
2022/03/29 02:24:17;;;;;;;205.40;54.38;;;;;;;5.17;93.49;101568.19;4965489;28;20056;-64
2022/03/29 02:26:43;;;;;;;231.18;57.08;;;;;;;5.20;93.66;101572.50;4983291;28;20578;-64
2022/03/29 02:29:09;;;;;;;225.25;56.25;;;;;;;5.27;93.63;101568.78;4982882;28;20047;-64
2022/03/29 02:31:35;;;;;;;297.15;59.80;;;;;;;5.29;93.28;101560.78;4982977;28;20050;-63
2022/03/29 02:34:01;;;;;;;254.98;59.10;;;;;;;5.27;93.53;101554.66;4982777;28;20046;-64
2022/03/29 02:36:26;;;;;;;212.25;56.70;;;;;;;5.35;93.58;101555.31;4965047;28;20054;-65
2022/03/29 02:38:52;;;;;;;214.77;54.33;;;;;;;5.34;92.70;101549.16;4964951;28;20034;-64
2022/03/29 02:41:17;;;;;;;276.85;59.15;;;;;;;5.29;93.53;101547.56;4965368;28;20392;-64
2022/03/29 02:43:43;;;;;;;276.13;59.05;;;;;;;5.26;93.16;101550.28;4981823;28;20054;-64
2022/03/29 02:46:08;;;;;;;385.85;61.05;;;;;;;5.19;93.58;101541.69;4982725;28;20050;-64
2022/03/29 02:48:33;;;;;;;409.58;65.25;;;;;;;5.17;93.34;101543.50;4982123;28;20030;-64
2022/03/29 02:50:59;;;;;;;478.08;69.95;;;;;;;5.21;93.47;101542.50;4982047;28;20487;-65
2022/03/29 02:53:24;;;;;;;333.45;60.35;;;;;;;5.21;93.53;101537.22;4981459;28;21032;-64
2022/03/29 02:55:50;;;;;;;406.10;64.07;;;;;;;5.20;93.73;101538.13;4981096;28;20049;-64
2022/03/29 02:58:15;;;;;;;408.70;66.10;;;;;;;5.25;94.12;101535.34;4963598;28;20518;-64
2022/03/29 03:00:40;;;;;;;354.13;58.25;;;;;;;5.10;93.70;101537.53;4974007;28;20049;-64
2022/03/29 03:03:06;;;;;;;460.63;71.28;;;;;;;5.09;94.03;101534.94;4979532;28;20045;-64
2022/03/29 03:05:32;;;;;;;345.83;61.25;;;;;;;5.10;94.04;101526.97;4980147;28;20101;-64
2022/03/29 03:07:57;;;;;;;458.92;65.63;;;;;;;5.11;94.06;101526.03;4979301;28;20057;-64
2022/03/29 03:10:23;;;;;;;407.20;63.30;;;;;;;5.07;94.40;101516.50;4979195;28;20049;-64
2022/03/29 03:12:49;;;;;;;418.98;61.90;;;;;;;5.05;94.36;101515.66;4980262;28;20050;-65
2022/03/29 03:15:18;;;;;;;448.33;65.65;;;;;;;5.09;94.62;101509.38;4980488;28;20088;-64
2022/03/29 03:17:44;;;;;;;442.83;68.35;;;;;;;5.14;94.55;101511.88;4981466;28;20212;-65
2022/03/29 03:20:11;;;;;;;531.97;68.72;;;;;;;5.09;94.53;101504.09;4981070;28;20038;-64
2022/03/29 03:22:37;;;;;;;574.92;72.28;;;;;;;5.06;94.45;101505.94;4996653;28;20037;-63
2022/03/29 03:25:03;;;;;;;480.50;71.15;;;;;;;5.10;94.69;101497.03;4999355;28;20161;-64
2022/03/29 03:27:29;;;;;;;519.90;74.35;;;;;;;5.13;94.59;101492.50;4999591;28;20041;-64
2022/03/29 03:29:54;;;;;;;430.92;65.38;;;;;;;5.17;95.14;101494.16;4980976;28;20041;-64
2022/03/29 03:32:21;;;;;;;488.98;72.28;;;;;;;5.16;95.07;101496.81;4999122;28;20041;-63
2022/03/29 03:34:46;;;;;;;311.50;59.17;;;;;;;5.17;94.65;101495.91;4998668;28;20060;-63
2022/03/29 03:37:12;;;;;;;381.48;63.90;;;;;;;5.20;94.92;101494.03;4980560;28;20034;-63
2022/03/29 03:39:37;;;;;;;318.52;61.67;;;;;;;5.23;94.19;101493.09;4997175;28;20038;-64
2022/03/29 03:42:11;;;;;;;363.42;60.33;;;;;;;5.22;94.66;101488.72;4999002;28;20048;-64
2022/03/29 03:44:37;;;;;;;380.10;64.22;;;;;;;5.22;94.48;101487.84;4998534;28;20065;-64
2022/03/29 03:47:04;;;;;;;335.65;60.58;;;;;;;5.20;94.40;101490.53;4998492;28;20044;-63
2022/03/29 03:49:30;;;;;;;369.40;58.70;;;;;;;5.14;94.53;101488.09;4978586;28;20056;-64
2022/03/29 03:51:55;;;;;;;479.98;67.28;;;;;;;5.10;94.99;101481.16;4997523;28;20049;-64
2022/03/29 03:54:21;;;;;;;456.30;68.80;;;;;;;5.09;94.63;101482.94;4982683;28;20026;-64
2022/03/29 03:56:47;;;;;;;481.88;68.25;;;;;;;5.16;94.81;101480.97;4999027;28;20042;-64
2022/03/29 03:59:13;;;;;;;374.00;60.13;;;;;;;5.08;94.87;101481.22;4992956;28;20038;-65
2022/03/29 04:01:38;;;;;;;480.67;65.60;;;;;;;5.03;94.46;101474.34;4997601;28;20463;-65
2022/03/29 04:04:04;;;;;;;391.13;61.05;;;;;;;5.07;94.66;101475.94;4998865;28;20107;-64
2022/03/29 04:06:29;;;;;;;489.13;68.60;;;;;;;5.03;94.66;101474.34;4998956;28;20041;-64
2022/03/29 04:08:55;;;;;;;544.50;69.80;;;;;;;5.06;94.97;101468.94;4996504;28;20061;-65
2022/03/29 04:11:20;;;;;;;540.40;71.22;;;;;;;5.04;95.25;101466.34;4999459;28;20049;-65
2022/03/29 04:13:46;;;;;;;522.35;70.32;;;;;;;5.05;95.21;101467.22;4999409;28;20046;-64
2022/03/29 04:16:12;;;;;;;547.78;72.57;;;;;;;5.04;95.10;101466.34;4998720;28;20833;-65
2022/03/29 04:18:37;;;;;;;274.85;53.83;;;;;;;5.11;95.27;101462.59;4999732;28;20044;-65
2022/03/29 04:21:04;;;;;;;364.13;59.05;;;;;;;5.09;95.25;101456.50;4981022;28;20398;-65
2022/03/29 04:23:30;;;;;;;328.00;57.20;;;;;;;5.14;95.14;101456.38;4981771;28;20062;-65
2022/03/29 04:25:57;;;;;;;398.90;59.67;;;;;;;5.13;94.76;101455.50;4983067;28;20088;-65
2022/03/29 04:28:23;;;;;;;400.48;61.53;;;;;;;5.14;95.14;101456.38;4999442;28;20045;-64
2022/03/29 04:30:48;;;;;;;360.60;62.28;;;;;;;5.27;95.01;101449.78;4999783;28;20742;-64
2022/03/29 04:33:14;;;;;;;426.83;64.60;;;;;;;5.27;94.69;101443.63;5000057;28;20509;-65
2022/03/29 04:35:40;;;;;;;326.48;58.15;;;;;;;5.27;94.94;101446.25;5001300;28;20038;-64
2022/03/29 04:38:05;;;;;;;406.55;61.55;;;;;;;5.24;94.57;101441.94;4985442;28;20038;-64
2022/03/29 04:40:31;;;;;;;320.75;55.75;;;;;;;5.30;94.39;101443.53;4985449;28;20441;-65
2022/03/29 04:43:00;;;;;;;256.02;55.17;;;;;;;5.27;94.54;101441.88;5002434;28;20046;-64
2022/03/29 04:45:25;;;;;;;277.08;55.40;;;;;;;5.23;94.17;101436.72;4970338;28;20042;-65
2022/03/29 04:47:50;;;;;;;248.13;52.55;;;;;;;5.28;94.94;101437.44;5004367;28;20509;-65
2022/03/29 04:50:17;;;;;;;325.35;57.05;;;;;;;5.32;94.45;101431.13;5002674;28;20046;-64
2022/03/29 04:52:46;;;;;;;390.58;58.70;;;;;;;5.28;94.20;101435.66;4986363;28;20048;-64
2022/03/29 04:55:13;;;;;;;493.55;64.55;;;;;;;5.09;93.91;101429.22;5004257;28;20052;-65
2022/03/29 04:57:41;;;;;;;400.17;60.17;;;;;;;5.13;94.71;101437.00;5004978;28;20390;-64
2022/03/29 05:00:07;;;;;;;468.02;61.00;;;;;;;5.07;94.93;101431.03;5004952;28;20046;-64
2022/03/29 05:02:34;;;;;;;435.58;60.97;;;;;;;5.07;95.07;101433.66;5004532;28;20050;-64
2022/03/29 05:05:01;;;;;;;551.85;67.25;;;;;;;5.03;95.04;101429.41;4989290;28;20050;-64
2022/03/29 05:07:28;;;;;;;474.58;63.40;;;;;;;5.04;95.21;101432.00;4985903;28;20046;-66
2022/03/29 05:09:54;;;;;;;519.63;68.40;;;;;;;5.01;94.56;101431.22;4985539;28;20718;-64
2022/03/29 05:12:19;;;;;;;306.15;51.90;;;;;;;5.06;95.30;101424.00;4969183;28;20034;-66
2022/03/29 05:14:45;;;;;;;598.60;72.82;;;;;;;5.16;94.97;101422.81;4987722;28;20066;-63
2022/03/29 05:17:10;;;;;;;359.10;57.53;;;;;;;5.16;94.29;101428.09;5001917;28;20044;-62
2022/03/29 05:19:36;;;;;;;440.23;57.75;;;;;;;5.07;94.96;101423.97;5010060;28;20045;-65
2022/03/29 05:22:02;;;;;;;403.45;56.53;;;;;;;5.16;94.74;101428.09;5005956;28;20038;-64
2022/03/29 05:24:28;;;;;;;428.33;58.10;;;;;;;4.98;95.03;101421.63;4994932;28;20410;-64
2022/03/29 05:26:53;;;;;;;349.20;53.72;;;;;;;5.09;95.37;101423.94;5005018;28;20050;-64
2022/03/29 05:29:18;;;;;;;376.20;57.88;;;;;;;5.16;95.13;101422.81;5003709;28;20096;-64
2022/03/29 05:31:44;;;;;;;379.00;55.95;;;;;;;5.12;94.64;101426.47;5003425;28;20106;-65
2022/03/29 05:34:10;;;;;;;512.08;64.75;;;;;;;5.11;94.62;101428.25;4984044;28;20037;-64
2022/03/29 05:36:35;;;;;;;372.77;57.40;;;;;;;5.06;95.02;101429.28;4981907;28;20076;-64
2022/03/29 05:39:03;;;;;;;500.98;66.45;;;;;;;5.09;95.28;101430.06;5004268;28;20041;-65
2022/03/29 05:41:29;;;;;;;596.20;70.60;;;;;;;5.14;95.54;101427.28;4998435;28;20573;-64
2022/03/29 05:43:55;;;;;;;449.75;62.67;;;;;;;5.15;96.20;101432.53;5000265;28;20053;-64
2022/03/29 05:49:04;;;;;;;409.48;59.88;;;;;;;5.13;96.07;101421.13;5000459;28;20128;-64
2022/03/29 05:51:31;;;;;;;422.40;65.47;;;;;;;5.22;96.89;101421.75;5002334;28;20041;-64
2022/03/29 05:53:57;;;;;;;360.23;58.42;;;;;;;5.23;96.37;101416.44;5001501;28;20049;-63
2022/03/29 05:56:23;;;;;;;523.90;66.90;;;;;;;5.18;97.17;101423.66;4983312;28;20041;-64
2022/03/29 05:58:50;;;;;;;474.23;62.92;;;;;;;5.24;96.72;101420.81;4983809;28;20041;-64
2022/03/29 06:01:15;;;;;;;461.08;61.65;;;;;;;5.24;96.69;101423.44;4999906;28;20046;-64
2022/03/29 06:03:41;;;;;;;509.55;67.20;;;;;;;5.10;96.61;101420.38;5001505;28;20151;-64
2022/03/29 06:06:08;;;;;;;326.80;56.92;;;;;;;5.17;96.75;101422.78;5001510;28;20605;-64
2022/03/29 06:08:33;;;;;;;516.50;65.03;;;;;;;5.11;97.06;101428.25;5001458;28;20045;-66
2022/03/29 06:10:59;;;;;;;488.30;64.40;;;;;;;5.19;97.17;101422.72;5001863;28;20103;-64
2022/03/29 06:13:25;;;;;;;538.97;67.72;;;;;;;5.11;97.14;101425.59;5002021;28;20442;-64
2022/03/29 06:15:53;;;;;;;468.50;64.20;;;;;;;5.17;98.00;101422.78;5002105;28;20145;-65
2022/03/29 06:18:19;;;;;;;516.72;67.78;;;;;;;5.15;97.67;101434.31;4984290;28;20049;-64
2022/03/29 06:20:44;;;;;;;454.83;66.97;;;;;;;5.12;97.21;101431.75;5002273;28;20034;-64
2022/03/29 06:23:10;;;;;;;382.80;62.40;;;;;;;5.14;97.06;101430.78;4984336;28;20057;-64
2022/03/29 06:25:36;;;;;;;389.45;59.40;;;;;;;5.15;97.19;101436.94;5002153;28;20064;-64
2022/03/29 06:28:01;;;;;;;380.98;59.78;;;;;;;5.13;97.41;101428.22;5001668;28;20052;-64
2022/03/29 06:30:27;;;;;;;428.75;61.83;;;;;;;5.06;96.60;101427.50;5002020;28;20034;-63
2022/03/29 06:32:53;;;;;;;383.25;60.90;;;;;;;5.15;97.40;101424.59;5002185;28;20553;-63
2022/03/29 06:35:21;;;;;;;315.27;59.33;;;;;;;5.16;96.76;101425.44;4996837;28;20065;-64
2022/03/29 06:37:51;;;;;;;281.35;58.17;;;;;;;5.17;96.70;101432.47;5001960;28;20037;-64
2022/03/29 06:40:16;;;;;;;272.17;53.40;;;;;;;5.12;96.79;101421.16;4985538;28;20053;-64
2022/03/29 06:42:42;;;;;;;281.83;56.40;;;;;;;5.09;96.31;101424.78;4983982;28;20081;-66
2022/03/29 06:45:09;;;;;;;262.40;53.90;;;;;;;5.15;96.45;101421.09;5002287;28;20045;-64
2022/03/29 06:47:34;;;;;;;269.02;55.58;;;;;;;5.19;96.47;101425.38;5002600;28;20038;-64
2022/03/29 06:50:01;;;;;;;259.85;56.20;;;;;;;5.26;95.84;101424.25;5002376;28;20049;-63
2022/03/29 06:52:28;;;;;;;245.55;55.38;;;;;;;5.31;95.64;101429.38;5001733;28;20049;-63
2022/03/29 06:54:53;;;;;;;229.15;55.28;;;;;;;5.15;94.56;101423.72;5001839;28;20037;-64
2022/03/29 06:57:19;;;;;;;235.80;54.67;;;;;;;5.23;94.30;101416.44;5001386;28;20057;-63
2022/03/29 06:59:44;;;;;;;217.70;52.05;;;;;;;5.32;94.05;101421.44;4999770;28;20052;-66
2022/03/29 07:02:10;;;;;;;234.27;54.70;;;;;;;5.35;93.61;101418.66;5001605;28;20050;-64
2022/03/29 07:04:36;;;;;;;230.63;53.20;;;;;;;5.40;93.09;101418.53;5001434;28;20096;-64
2022/03/29 07:07:01;;;;;;;229.75;55.28;;;;;;;5.55;92.86;101411.88;5001618;28;20046;-64
2022/03/29 07:12:12;;;;;;;228.90;51.65;;;;;;;5.64;92.07;101416.84;5001341;28;20056;-64
2022/03/29 07:14:37;;;;;;;206.52;52.42;;;;;;;5.63;91.18;101416.00;5001385;28;20127;-63
2022/03/29 07:17:05;;;;;;;198.20;50.70;;;;;;;5.68;90.07;101423.78;5001222;28;20053;-63
2022/03/29 07:19:31;;;;;;;189.38;48.45;;;;;;;5.67;89.80;101430.84;4983462;28;20410;-64
2022/03/29 07:21:56;;;;;;;186.80;47.88;;;;;;;5.66;89.24;101428.22;4982759;28;20046;-64
2022/03/29 07:24:22;;;;;;;182.80;45.67;;;;;;;5.71;88.64;101426.28;5000345;28;20049;-63
2022/03/29 07:26:48;;;;;;;176.80;45.33;;;;;;;5.55;88.16;101433.88;4999336;28;20045;-63
2022/03/29 07:29:13;;;;;;;161.68;47.25;;;;;;;5.51;88.40;101436.69;4999721;28;20053;-64
2022/03/29 07:31:39;;;;;;;175.70;45.42;;;;;;;5.60;87.72;101429.31;4999042;28;20052;-64
2022/03/29 07:34:05;;;;;;;168.32;48.22;;;;;;;5.64;87.96;101430.06;5000271;28;20819;-65
2022/03/29 07:36:31;;;;;;;153.73;48.42;;;;;;;5.71;87.01;101434.22;4982709;28;20042;-65
2022/03/29 07:38:57;;;;;;;160.93;45.92;;;;;;;5.75;86.98;101433.22;5001181;28;20398;-64
2022/03/29 07:41:22;;;;;;;157.27;46.50;;;;;;;5.82;87.24;101431.22;5000784;28;20045;-64
2022/03/29 07:43:48;;;;;;;148.40;45.85;;;;;;;5.95;86.69;101436.06;4983470;28;20049;-65
2022/03/29 07:46:13;;;;;;;143.82;44.20;;;;;;;5.96;86.57;101429.84;5001953;28;20057;-65
2022/03/29 07:48:39;;;;;;;144.85;44.03;;;;;;;6.10;86.40;101437.31;5001095;28;20558;-64
2022/03/29 07:51:05;;;;;;;136.05;42.53;;;;;;;6.02;87.13;101433.22;5001558;28;20030;-66
2022/03/29 07:53:31;;;;;;;125.93;40.22;;;;;;;6.09;85.70;101440.91;5001536;28;20575;-64
2022/03/29 07:55:56;;;;;;;117.70;40.30;;;;;;;6.05;84.88;101428.69;5001455;28;20150;-64
2022/03/29 07:58:23;;;;;;;104.10;39.80;;;;;;;6.11;85.64;101431.09;5001338;28;20057;-64
2022/03/29 08:00:53;;;;;;;109.35;40.05;;;;;;;6.34;84.97;101429.44;4999609;28;20096;-64
2022/03/29 08:03:20;;;;;;;100.28;38.42;;;;;;;6.60;83.93;101429.34;5001417;28;20063;-64
2022/03/29 08:05:47;;;;;;;93.82;37.45;;;;;;;6.62;83.60;101431.91;4982766;28;20041;-64
2022/03/29 08:08:14;;;;;;;83.10;33.25;;;;;;;6.92;82.48;101428.09;4999693;28;20042;-64
2022/03/29 08:10:40;;;;;;;73.85;32.92;;;;;;;7.08;81.89;101432.78;5000347;28;20038;-64
2022/03/29 08:13:07;;;;;;;88.65;34.20;;;;;;;7.03;82.67;101424.16;5000075;28;20052;-64
2022/03/29 08:15:43;;;;;;;79.30;32.58;;;;;;;6.83;81.36;101439.06;5000335;28;20048;-64
2022/03/29 08:18:08;;;;;;;85.35;34.35;;;;;;;6.72;81.10;101425.34;5000194;28;20053;-64
2022/03/29 08:20:35;;;;;;;88.80;35.55;;;;;;;6.69;82.47;101428.13;5000020;28;20046;-64
2022/03/29 08:23:00;;;;;;;82.70;35.28;;;;;;;6.45;82.12;101429.91;4998639;28;20050;-64
2022/03/29 08:25:29;;;;;;;85.72;32.72;;;;;;;6.63;82.31;101429.22;5000280;28;20104;-64
2022/03/29 08:27:56;;;;;;;82.85;36.28;;;;;;;6.43;81.83;101424.66;4999944;28;20045;-64
2022/03/29 08:30:22;;;;;;;83.70;34.58;;;;;;;6.35;82.00;101421.44;5000119;28;20121;-64
2022/03/29 08:32:48;;;;;;;83.75;33.67;;;;;;;6.62;81.55;101410.72;4982455;28;20033;-64
2022/03/29 08:35:13;;;;;;;83.78;33.47;;;;;;;6.60;82.02;101417.88;5000013;28;20048;-64
2022/03/29 08:37:40;;;;;;;92.50;36.00;;;;;;;6.51;81.57;101413.78;5000807;28;20451;-64
2022/03/29 08:40:09;;;;;;;84.85;35.50;;;;;;;6.56;80.74;101417.09;5000735;28;20038;-65
2022/03/29 08:42:35;;;;;;;88.00;36.03;;;;;;;6.88;80.95;101410.59;5000420;28;20050;-65
2022/03/29 08:45:05;;;;;;;88.50;34.97;;;;;;;6.97;79.36;101410.22;5000732;28;20065;-64
2022/03/29 08:47:31;;;;;;;85.00;34.15;;;;;;;6.98;80.15;101411.09;5000871;28;20034;-64
2022/03/29 08:49:57;;;;;;;95.45;36.97;;;;;;;7.18;78.56;101402.38;5000282;28;20052;-64
2022/03/29 08:52:22;;;;;;;83.07;34.03;;;;;;;7.55;79.83;101401.69;5001100;28;20112;-64
2022/03/29 08:54:49;;;;;;;80.63;35.30;;;;;;;7.23;78.60;101400.38;5000441;28;20037;-65
2022/03/29 08:57:15;;;;;;;83.97;36.00;;;;;;;7.33;79.12;101396.44;4982428;28;20046;-64
2022/03/29 08:59:42;;;;;;;81.55;35.33;;;;;;;7.78;78.88;101387.44;4998947;28;20118;-64
2022/03/29 09:02:18;;;;;;;84.40;35.67;;;;;;;8.22;75.78;101380.19;5000281;28;20042;-64
2022/03/29 09:04:45;;;;;;;89.50;35.15;;;;;;;7.83;76.76;101379.28;5000442;28;20041;-64
2022/03/29 09:07:10;;;;;;;81.10;35.70;;;;;;;7.61;77.61;101382.88;4998826;28;20141;-64
2022/03/29 09:09:38;;;;;;;85.95;37.42;;;;;;;8.27;76.02;101383.50;5000541;28;20065;-64
2022/03/29 09:12:18;;;;;;;85.57;35.05;;;;;;;7.81;75.63;101382.00;5000673;28;20491;-64
2022/03/29 09:14:52;;;;;;;84.97;36.95;;;;;;;8.03;75.12;101366.00;4999208;28;20124;-64
2022/03/29 09:17:36;;;;;;;87.55;36.08;;;;;;;7.75;77.14;101371.66;4982141;28;20040;-64
2022/03/29 09:20:05;;;;;;;83.60;34.33;;;;;;;7.52;77.26;101378.78;4994872;28;20198;-65
2022/03/29 09:22:40;;;;;;;95.63;37.58;;;;;;;7.56;77.69;101374.22;4998323;28;20076;-64
2022/03/29 09:25:07;;;;;;;84.53;35.03;;;;;;;7.49;77.95;101380.75;5003624;28;20116;-64
2022/03/29 09:28:13;;;;;;;84.57;36.20;;;;;;;7.37;77.37;101386.53;5004199;28;20048;-65
2022/03/29 09:30:47;;;;;;;89.50;38.05;;;;;;;7.56;77.69;101378.69;4904248;29;20099;-64
2022/03/29 09:33:16;;;;;;;88.85;35.85;;;;;;;7.47;77.73;101378.13;4991874;28;20865;-64
2022/03/29 09:36:07;;;;;;;84.45;35.05;;;;;;;7.92;75.77;101385.06;5003570;28;20048;-64
2022/03/29 09:38:37;;;;;;;86.68;36.97;;;;;;;7.92;75.36;101382.41;4996148;28;20038;-64
2022/03/29 09:41:04;;;;;;;94.40;40.03;;;;;;;8.02;74.54;101382.88;4983926;28;20166;-64
2022/03/29 09:44:06;;;;;;;86.03;35.83;;;;;;;8.69;72.93;101371.88;4983383;28;20090;-64
2022/03/29 09:47:02;;;;;;;86.30;37.97;;;;;;;9.10;72.31;101377.00;4983884;28;20120;-64
2022/03/29 09:49:28;;;;;;;97.47;39.63;;;;;;;8.87;72.93;101369.25;4983418;28;20154;-65
2022/03/29 09:52:11;;;;;;;77.00;34.22;;;;;;;8.69;72.08;101373.66;4983790;28;20042;-64
2022/03/29 09:54:37;;;;;;;91.55;37.00;;;;;;;9.21;70.32;101364.03;4983885;28;20101;-64
2022/03/29 09:57:03;;;;;;;84.63;35.53;;;;;;;9.27;70.95;101370.84;4983921;28;20695;-64
2022/03/29 09:59:29;;;;;;;82.85;35.10;;;;;;;9.43;69.27;101358.50;4988361;28;20044;-64
2022/03/29 10:01:57;;;;;;;78.07;34.85;;;;;;;10.37;68.49;101358.03;5002994;28;20045;-64
2022/03/29 10:04:30;;;;;;;86.40;36.33;;;;;;;10.04;65.90;101355.34;4995450;28;20038;-64
2022/03/29 10:07:00;;;;;;;80.15;36.80;;;;;;;10.01;68.12;101351.97;5002259;28;20069;-64
2022/03/29 10:09:30;;;;;;;85.43;34.35;;;;;;;8.97;70.16;101355.44;5001694;28;20045;-64
2022/03/29 10:12:16;;;;;;;82.53;35.35;;;;;;;8.93;71.17;101353.00;5000715;28;20054;-64
2022/03/29 10:14:43;;;;;;;72.82;34.05;;;;;;;9.19;70.22;101349.94;5001755;28;20045;-64
2022/03/29 10:17:08;;;;;;;82.20;35.80;;;;;;;9.24;70.67;101350.59;5000319;28;20029;-64
2022/03/29 10:19:36;;;;;;;82.25;34.25;;;;;;;9.45;70.03;101351.31;4966900;28;20057;-64
2022/03/29 10:22:03;;;;;;;87.55;35.75;;;;;;;8.64;72.44;101357.06;4980503;28;20128;-64
2022/03/29 10:24:29;;;;;;;75.55;34.42;;;;;;;8.95;70.07;101346.69;4981607;28;20774;-64
2022/03/29 10:26:59;;;;;;;84.38;36.88;;;;;;;9.49;71.09;101347.56;4981947;28;20054;-64
2022/03/29 10:29:25;;;;;;;83.20;36.17;;;;;;;9.53;68.76;101341.09;4982198;28;20057;-64
2022/03/29 10:32:05;;;;;;;90.93;37.22;;;;;;;9.96;69.01;101338.91;4981928;28;20038;-64
2022/03/29 10:34:37;;;;;;;81.72;36.17;;;;;;;9.57;68.31;101337.34;4984453;28;20049;-64
2022/03/29 10:37:23;;;;;;;85.28;36.25;;;;;;;9.16;68.69;101334.13;5000756;28;20056;-64
2022/03/29 10:39:54;;;;;;;83.45;36.45;;;;;;;9.37;69.49;101350.81;5000237;28;20061;-65
2022/03/29 10:42:39;;;;;;;78.25;36.20;;;;;;;9.73;69.40;101333.91;5000176;28;20041;-64
2022/03/29 10:45:07;;;;;;;73.00;36.17;;;;;;;10.07;66.32;101336.50;5000616;28;20077;-64
2022/03/29 10:47:33;;;;;;;77.45;35.60;;;;;;;10.29;66.99;101328.28;5001117;28;20112;-63
2022/03/29 10:50:00;;;;;;;75.55;34.22;;;;;;;10.11;67.48;101323.91;5001830;28;20041;-64
2022/03/29 10:52:25;;;;;;;76.93;36.22;;;;;;;10.40;66.14;101317.03;5001577;28;20272;-64
2022/03/29 10:54:53;;;;;;;80.80;36.85;;;;;;;10.57;65.84;101324.94;4995913;28;20918;-63
2022/03/29 10:57:24;;;;;;;70.57;34.22;;;;;;;10.69;65.04;101325.19;4986121;28;20481;-64
2022/03/29 10:59:51;;;;;;;74.13;35.10;;;;;;;11.00;65.90;101319.84;5004048;28;20038;-64
2022/03/29 11:02:20;;;;;;;72.95;35.83;;;;;;;10.84;64.21;101311.88;5003636;28;20100;-64
2022/03/29 11:05:07;;;;;;;72.78;36.95;;;;;;;11.49;61.96;101314.28;5004176;28;20086;-64
2022/03/29 11:07:38;;;;;;;68.68;33.47;;;;;;;11.27;61.88;101314.72;5004053;28;20069;-64
2022/03/29 11:10:15;;;;;;;74.13;35.38;;;;;;;10.85;62.62;101310.91;5003586;28;20104;-65
2022/03/29 11:12:45;;;;;;;68.22;35.22;;;;;;;11.67;61.48;101312.34;5003482;28;20557;-65
2022/03/29 11:15:35;;;;;;;63.97;32.75;;;;;;;11.18;61.90;101299.22;4985303;28;20132;-64
2022/03/29 11:18:04;;;;;;;62.50;31.80;;;;;;;11.12;63.67;101295.13;4983843;28;20504;-65
2022/03/29 11:20:32;;;;;;;64.05;32.50;;;;;;;10.63;63.68;101302.41;4999405;28;20037;-64
2022/03/29 11:23:05;;;;;;;66.40;32.17;;;;;;;11.04;62.02;101293.84;4982751;28;20054;-64